createdAt,value
2023-03-29T00:02:30.218Z,4.10
2023-03-29T00:04:58.134Z,4.14
2023-03-29T00:07:26.028Z,3.98
2023-03-29T00:09:52.969Z,4.03
2023-03-29T00:12:19.734Z,4.24
2023-03-29T00:14:46.357Z,4.00
2023-03-29T00:17:13.114Z,4.14
2023-03-29T00:19:39.825Z,4.08
2023-03-29T00:22:06.639Z,4.31
2023-03-29T00:24:33.434Z,4.27
2023-03-29T00:27:00.262Z,4.05
2023-03-29T00:29:26.867Z,4.35
2023-03-29T00:31:56.094Z,4.19
2023-03-29T00:34:24.050Z,4.28
2023-03-29T00:36:51.010Z,4.32
2023-03-29T00:39:18.124Z,4.22
2023-03-29T00:41:49.876Z,3.98
2023-03-29T00:44:54.181Z,4.24
2023-03-29T00:47:46.216Z,4.42
2023-03-29T00:50:16.387Z,4.42
2023-03-29T00:52:50.814Z,4.46
2023-03-29T00:55:23.866Z,4.27
2023-03-29T00:57:55.722Z,4.41
2023-03-29T01:00:31.765Z,4.19
2023-03-29T01:03:06.989Z,4.15
2023-03-29T01:05:40.493Z,4.47
2023-03-29T01:08:19.613Z,4.26
2023-03-29T01:11:12.312Z,4.20
2023-03-29T01:13:50.467Z,4.29
2023-03-29T01:16:22.001Z,4.06
2023-03-29T01:18:48.640Z,4.34
2023-03-29T01:21:53.898Z,4.22
2023-03-29T01:24:45.985Z,4.12
2023-03-29T01:27:39.557Z,4.29
2023-03-29T01:30:14.157Z,4.28
2023-03-29T01:32:59.159Z,4.27
2023-03-29T01:35:45.848Z,4.55
2023-03-29T01:38:19.442Z,4.35
2023-03-29T01:40:46.077Z,4.64
2023-03-29T01:43:31.369Z,4.35
2023-03-29T01:46:04.370Z,4.39
2023-03-29T01:48:42.817Z,4.41
2023-03-29T01:51:34.466Z,4.55
2023-03-29T01:54:22.002Z,4.70
2023-03-29T01:56:51.860Z,4.61
2023-03-29T01:59:24.301Z,4.44
2023-03-29T02:01:59.712Z,4.64
2023-03-29T02:04:34.506Z,4.68
2023-03-29T02:07:05.226Z,4.71
2023-03-29T02:09:36.165Z,4.58
2023-03-29T02:12:05.998Z,4.85
2023-03-29T02:14:32.816Z,4.85
2023-03-29T02:17:28.918Z,4.75
2023-03-29T02:20:10.237Z,4.75
2023-03-29T02:22:46.318Z,4.96
2023-03-29T02:25:13.266Z,4.52
2023-03-29T02:27:40.052Z,4.72
2023-03-29T02:30:10.898Z,4.95
2023-03-29T02:32:54.567Z,4.85
2023-03-29T02:35:39.195Z,4.96
2023-03-29T02:38:10.497Z,5.11
2023-03-29T02:40:39.600Z,5.00
2023-03-29T02:43:09.844Z,4.87
2023-03-29T02:45:37.901Z,5.26
2023-03-29T02:48:10.556Z,5.19
2023-03-29T02:50:39.863Z,5.21
2023-03-29T02:53:22.740Z,5.36
2023-03-29T02:55:49.577Z,5.49
2023-03-29T02:58:16.176Z,5.33
2023-03-29T03:00:48.153Z,5.45
2023-03-29T03:03:18.071Z,5.05
2023-03-29T03:05:44.738Z,5.34
2023-03-29T03:08:11.420Z,5.36
2023-03-29T03:10:38.096Z,5.40
2023-03-29T03:13:04.719Z,5.30
2023-03-29T03:15:35.507Z,5.27
2023-03-29T03:18:03.707Z,5.26
2023-03-29T03:20:31.229Z,5.11
2023-03-29T03:22:58.426Z,5.37
2023-03-29T03:25:25.158Z,5.17
2023-03-29T03:27:52.097Z,5.25
2023-03-29T03:30:19.017Z,5.29
2023-03-29T03:32:45.617Z,5.49
2023-03-29T03:35:12.402Z,5.38
2023-03-29T03:37:39.474Z,5.39
2023-03-29T03:40:12.050Z,5.32
2023-03-29T03:42:39.897Z,5.36
2023-03-29T03:45:08.396Z,5.43
2023-03-29T03:47:37.334Z,5.42
2023-03-29T03:50:06.385Z,5.47
2023-03-29T03:52:32.986Z,5.49
2023-03-29T03:54:59.621Z,5.22
2023-03-29T03:57:26.508Z,5.58
2023-03-29T03:59:53.218Z,5.43
2023-03-29T04:02:20.566Z,5.59
2023-03-29T04:04:47.655Z,5.42
2023-03-29T04:07:14.411Z,5.37
2023-03-29T04:09:41.092Z,5.61
2023-03-29T04:12:07.759Z,5.57
2023-03-29T04:14:34.789Z,5.57
2023-03-29T04:17:01.900Z,5.54
2023-03-29T04:19:28.452Z,5.85
2023-03-29T04:21:55.012Z,5.32
2023-03-29T04:24:24.984Z,5.37
2023-03-29T04:26:51.571Z,5.57
2023-03-29T04:29:18.160Z,5.43
2023-03-29T04:31:44.741Z,5.65
2023-03-29T04:34:11.407Z,5.68
2023-03-29T04:36:38.658Z,5.58
2023-03-29T04:39:07.895Z,5.26
2023-03-29T04:41:35.019Z,5.49
2023-03-29T04:44:03.449Z,5.51
2023-03-29T04:46:30.735Z,5.65
2023-03-29T04:48:57.513Z,5.46
2023-03-29T04:51:24.445Z,5.51
2023-03-29T04:53:51.206Z,5.42
2023-03-29T04:56:17.901Z,5.30
2023-03-29T04:58:44.617Z,5.57
2023-03-29T05:01:11.721Z,5.23
2023-03-29T05:03:38.887Z,5.22
2023-03-29T05:06:07.583Z,5.38
2023-03-29T05:08:39.949Z,5.31
2023-03-29T05:11:09.098Z,5.31
2023-03-29T05:13:36.858Z,5.04
2023-03-29T05:16:04.791Z,5.26
2023-03-29T05:18:31.894Z,5.46
2023-03-29T05:20:59.665Z,5.52
2023-03-29T05:23:27.583Z,5.76
2023-03-29T05:25:54.413Z,5.73
2023-03-29T05:28:21.086Z,5.45
2023-03-29T05:30:48.465Z,5.85
2023-03-29T05:33:15.152Z,5.73
2023-03-29T05:35:41.889Z,5.75
2023-03-29T05:38:08.858Z,5.84
2023-03-29T05:40:35.840Z,5.67
2023-03-29T05:43:02.767Z,5.34
2023-03-29T05:45:29.899Z,5.75
2023-03-29T05:47:57.574Z,5.49
2023-03-29T05:50:24.765Z,5.84
2023-03-29T05:52:51.612Z,5.79
2023-03-29T05:55:18.517Z,5.71
2023-03-29T05:57:45.205Z,5.74
2023-03-29T06:00:25.508Z,6.04
2023-03-29T06:02:52.830Z,5.65
2023-03-29T06:05:20.183Z,5.84
2023-03-29T06:07:48.807Z,5.71
2023-03-29T06:10:15.839Z,5.86
2023-03-29T06:12:42.505Z,5.94
2023-03-29T06:15:10.224Z,5.85
2023-03-29T06:17:37.112Z,5.99
2023-03-29T06:20:08.721Z,5.83
2023-03-29T06:22:35.358Z,6.19
2023-03-29T06:25:02.506Z,6.10
2023-03-29T06:27:29.151Z,6.06
2023-03-29T06:29:55.721Z,6.26
2023-03-29T06:32:23.312Z,6.00
2023-03-29T06:34:50.884Z,6.24
2023-03-29T06:37:18.043Z,6.55
2023-03-29T06:39:44.660Z,6.47
2023-03-29T06:42:20.487Z,6.73
2023-03-29T06:44:47.965Z,6.93
2023-03-29T06:47:15.844Z,6.76
2023-03-29T06:49:42.448Z,6.84
2023-03-29T06:52:09.878Z,7.02
2023-03-29T06:54:36.556Z,6.86
2023-03-29T06:57:05.493Z,7.17
2023-03-29T06:59:32.145Z,7.01
2023-03-29T07:01:58.926Z,7.22
2023-03-29T07:04:25.747Z,7.36
2023-03-29T07:07:01.424Z,7.50
2023-03-29T07:09:32.385Z,7.22
2023-03-29T07:12:00.292Z,7.80
2023-03-29T07:14:30.083Z,7.71
2023-03-29T07:17:01.160Z,7.69
2023-03-29T07:19:30.143Z,7.65
2023-03-29T07:21:57.160Z,7.58
2023-03-29T07:24:23.725Z,7.75
2023-03-29T07:27:03.228Z,7.77
2023-03-29T07:29:31.047Z,8.28
2023-03-29T07:31:57.704Z,8.06
2023-03-29T07:34:24.909Z,7.91
2023-03-29T07:36:52.035Z,7.90
2023-03-29T07:39:18.696Z,7.90
2023-03-29T07:41:45.298Z,7.96
2023-03-29T07:44:12.001Z,8.08
2023-03-29T07:46:38.605Z,7.86
2023-03-29T07:49:05.992Z,8.34
2023-03-29T07:51:32.559Z,8.08
2023-03-29T07:53:59.847Z,8.20
2023-03-29T07:56:26.555Z,8.16
2023-03-29T07:58:53.279Z,8.05
2023-03-29T08:01:20.407Z,8.41
2023-03-29T08:03:47.280Z,8.56
2023-03-29T08:06:16.077Z,8.20
2023-03-29T08:08:42.861Z,8.22
2023-03-29T08:11:10.195Z,8.71
2023-03-29T08:13:37.369Z,9.09
2023-03-29T08:16:05.814Z,8.97
2023-03-29T08:18:34.748Z,8.78
2023-03-29T08:21:02.134Z,9.39
2023-03-29T08:23:28.906Z,9.84
2023-03-29T08:25:55.694Z,9.61
2023-03-29T08:28:22.360Z,10.20
2023-03-29T08:30:49.831Z,10.30
2023-03-29T08:33:17.045Z,10.27
2023-03-29T08:35:43.908Z,10.22
2023-03-29T08:38:11.157Z,10.23
2023-03-29T08:40:37.955Z,10.34
2023-03-29T08:43:26.032Z,10.53
2023-03-29T08:46:12.683Z,10.84
2023-03-29T08:48:49.307Z,10.62
2023-03-29T08:51:22.003Z,11.01
2023-03-29T08:54:35.808Z,10.62
2023-03-29T08:57:17.335Z,11.37
2023-03-29T08:59:47.654Z,11.10
2023-03-29T09:02:23.954Z,11.03
2023-03-29T09:04:52.991Z,11.22
2023-03-29T09:07:20.129Z,11.51
2023-03-29T09:09:46.796Z,11.34
2023-03-29T09:12:16.148Z,11.04
2023-03-29T09:15:08.612Z,11.29
2023-03-29T09:17:53.699Z,11.49
2023-03-29T09:20:29.947Z,11.48
2023-03-29T09:23:15.088Z,11.35
2023-03-29T09:26:04.390Z,11.74
2023-03-29T09:28:53.120Z,11.77
2023-03-29T09:31:26.688Z,11.66
2023-03-29T09:34:01.990Z,11.20
2023-03-29T09:36:53.814Z,11.84
2023-03-29T09:39:23.125Z,11.58
2023-03-29T09:42:08.010Z,11.80
2023-03-29T09:44:46.922Z,12.14
2023-03-29T09:47:32.870Z,11.81
2023-03-29T09:50:04.363Z,12.15
2023-03-29T09:52:31.228Z,11.85
2023-03-29T09:55:01.089Z,12.21
2023-03-29T09:57:30.937Z,12.66
2023-03-29T10:00:01.724Z,13.53
2023-03-29T10:02:30.692Z,13.76
2023-03-29T10:05:03.866Z,13.16
2023-03-29T10:07:46.344Z,12.92
2023-03-29T10:10:24.245Z,13.46
2023-03-29T10:12:54.409Z,14.15
2023-03-29T10:17:59.160Z,14.23
2023-03-29T10:20:25.941Z,13.65
2023-03-29T10:22:58.951Z,14.26
2023-03-29T10:25:31.774Z,13.82
2023-03-29T10:28:21.124Z,13.35
2023-03-29T10:30:55.832Z,14.20
2023-03-29T10:33:27.263Z,14.79
2023-03-29T10:35:57.719Z,15.01
2023-03-29T10:38:28.280Z,14.94
2023-03-29T10:41:04.775Z,15.97
2023-03-29T10:43:46.527Z,16.37
2023-03-29T10:46:44.159Z,17.09
2023-03-29T10:49:20.214Z,16.74
2023-03-29T10:51:51.650Z,16.67
2023-03-29T10:54:22.176Z,16.55
2023-03-29T10:57:03.483Z,16.38
2023-03-29T10:59:34.255Z,16.69
2023-03-29T11:02:14.159Z,16.05
2023-03-29T11:04:46.653Z,16.56
2023-03-29T11:07:31.729Z,16.21
2023-03-29T11:10:28.317Z,16.58
2023-03-29T11:13:29.963Z,17.12
2023-03-29T11:16:13.816Z,17.17
2023-03-29T11:18:43.555Z,17.16
2023-03-29T11:21:27.072Z,16.90
2023-03-29T11:24:22.845Z,17.05
2023-03-29T11:27:10.992Z,17.20
2023-03-29T11:29:58.700Z,16.84
2023-03-29T11:32:57.765Z,15.93
2023-03-29T11:35:45.601Z,16.68
2023-03-29T11:38:34.862Z,16.50
2023-03-29T11:41:08.324Z,16.44
2023-03-29T11:43:37.511Z,16.57
2023-03-29T11:46:13.652Z,16.66
2023-03-29T11:48:49.727Z,16.12
2023-03-29T11:51:23.853Z,15.94
2023-03-29T11:54:02.084Z,15.57
2023-03-29T11:56:40.415Z,16.09
2023-03-29T11:59:18.420Z,16.72
2023-03-29T12:01:52.794Z,16.96
2023-03-29T12:04:27.289Z,17.71
2023-03-29T12:07:15.035Z,19.16
2023-03-29T12:09:50.230Z,20.42
2023-03-29T12:12:39.855Z,21.04
2023-03-29T12:15:10.830Z,21.79
2023-03-29T12:17:43.428Z,22.01
2023-03-29T12:20:28.194Z,21.74
2023-03-29T12:22:55.768Z,21.99
2023-03-29T12:25:34.430Z,21.54
2023-03-29T12:28:15.080Z,20.98
2023-03-29T12:30:41.738Z,21.03
2023-03-29T12:33:21.565Z,20.93
2023-03-29T12:36:13.239Z,21.10
2023-03-29T12:38:43.679Z,21.78
2023-03-29T12:41:20.333Z,22.59
2023-03-29T12:43:48.101Z,23.29
2023-03-29T12:46:18.255Z,22.65
2023-03-29T12:48:49.534Z,22.93
2023-03-29T12:51:23.999Z,23.30
2023-03-29T12:53:54.708Z,23.34
2023-03-29T12:56:34.517Z,23.35
2023-03-29T12:59:17.529Z,24.12
2023-03-29T13:02:08.547Z,23.28
2023-03-29T13:04:56.405Z,23.80
2023-03-29T13:07:23.075Z,24.18
2023-03-29T13:09:52.414Z,23.77
2023-03-29T13:12:35.292Z,23.63
2023-03-29T13:15:21.988Z,23.08
2023-03-29T13:18:07.579Z,23.07
2023-03-29T13:20:58.811Z,22.68
2023-03-29T13:23:56.292Z,22.63
2023-03-29T13:26:31.965Z,22.04
2023-03-29T13:29:19.810Z,21.49
2023-03-29T13:32:20.727Z,22.11
2023-03-29T13:35:34.087Z,22.04
2023-03-29T13:38:12.884Z,22.81
2023-03-29T13:40:54.059Z,22.84
2023-03-29T13:43:37.562Z,24.33
2023-03-29T13:46:16.545Z,23.58
2023-03-29T13:48:43.100Z,24.25
2023-03-29T13:51:19.016Z,24.80
2023-03-29T13:53:52.940Z,24.90
2023-03-29T13:56:26.317Z,25.02
2023-03-29T13:59:03.636Z,24.24
2023-03-29T14:01:41.366Z,23.54
2023-03-29T14:04:19.063Z,23.31
2023-03-29T14:06:52.773Z,23.53
2023-03-29T14:09:24.861Z,23.23
2023-03-29T14:11:51.934Z,23.51
2023-03-29T14:14:25.855Z,22.94
2023-03-29T14:16:55.783Z,22.42
2023-03-29T14:19:36.090Z,22.16
2023-03-29T14:22:09.222Z,22.79
2023-03-29T14:24:41.392Z,22.80
2023-03-29T14:27:12.175Z,22.23
2023-03-29T14:29:38.887Z,21.59
2023-03-29T14:32:13.771Z,22.08
2023-03-29T14:34:41.124Z,21.34
2023-03-29T14:37:12.054Z,20.48
2023-03-29T14:39:41.072Z,20.16
2023-03-29T14:42:28.836Z,19.48
2023-03-29T14:45:04.970Z,18.93
2023-03-29T14:47:33.715Z,19.38
2023-03-29T14:50:01.803Z,19.52
2023-03-29T14:52:30.799Z,19.27
2023-03-29T14:55:00.866Z,19.23
2023-03-29T14:57:35.487Z,18.98
2023-03-29T15:00:18.738Z,18.51
2023-03-29T15:02:57.260Z,18.64
2023-03-29T15:05:41.025Z,18.13
2023-03-29T15:08:14.701Z,18.40
2023-03-29T15:10:44.715Z,18.01
2023-03-29T15:13:18.493Z,16.50
2023-03-29T15:15:46.254Z,16.38
2023-03-29T15:18:17.121Z,15.25
2023-03-29T15:20:45.349Z,16.11
2023-03-29T15:23:14.988Z,16.79
2023-03-29T15:25:50.969Z,16.49
2023-03-29T15:28:33.686Z,15.21
2023-03-29T15:31:11.886Z,13.97
2023-03-29T15:33:41.651Z,13.82
2023-03-29T15:36:12.022Z,13.78
2023-03-29T15:38:44.720Z,13.27
2023-03-29T15:41:13.392Z,12.86
2023-03-29T15:43:41.224Z,12.65
2023-03-29T15:46:08.281Z,12.66
2023-03-29T15:48:35.081Z,11.84
2023-03-29T15:51:03.980Z,11.66
2023-03-29T15:53:32.332Z,11.57
2023-03-29T15:56:02.513Z,11.30
2023-03-29T15:58:31.717Z,11.15
2023-03-29T16:01:19.349Z,11.42
2023-03-29T16:03:47.909Z,10.85
2023-03-29T16:06:16.702Z,11.22
2023-03-29T16:08:43.466Z,10.46
2023-03-29T16:11:10.114Z,10.23
2023-03-29T16:13:36.762Z,10.11
2023-03-29T16:16:03.711Z,9.92
2023-03-29T16:18:30.583Z,9.67
2023-03-29T16:20:57.236Z,10.01
2023-03-29T16:23:23.845Z,9.74
2023-03-29T16:25:50.460Z,10.21
2023-03-29T16:28:17.139Z,9.80
2023-03-29T16:30:43.947Z,9.42
2023-03-29T16:33:11.272Z,9.38
2023-03-29T16:35:40.083Z,9.63
2023-03-29T16:38:09.095Z,9.75
2023-03-29T16:40:36.972Z,9.89
2023-03-29T16:43:03.881Z,9.58
2023-03-29T16:45:30.792Z,10.78
2023-03-29T16:47:57.473Z,10.83
2023-03-29T16:50:24.344Z,9.69
2023-03-29T16:52:54.048Z,9.37
2023-03-29T16:55:20.677Z,9.25
2023-03-29T16:57:48.593Z,9.65
2023-03-29T17:00:19.850Z,9.63
2023-03-29T17:02:51.001Z,9.66
2023-03-29T17:05:18.906Z,10.70
2023-03-29T17:07:46.805Z,10.98
2023-03-29T17:10:13.665Z,10.89
2023-03-29T17:12:41.550Z,10.48
2023-03-29T17:15:09.335Z,10.40
2023-03-29T17:17:37.415Z,10.34
2023-03-29T17:20:10.431Z,10.42
2023-03-29T17:22:37.050Z,9.93
2023-03-29T17:25:06.980Z,10.37
2023-03-29T17:27:34.946Z,10.16
2023-03-29T17:30:02.257Z,10.25
2023-03-29T17:32:28.999Z,10.54
2023-03-29T17:34:55.865Z,11.21
2023-03-29T17:37:22.859Z,11.66
2023-03-29T17:39:49.433Z,11.92
2023-03-29T17:42:17.301Z,12.63
2023-03-29T17:44:44.577Z,12.97
2023-03-29T17:47:11.297Z,12.65
2023-03-29T17:49:37.910Z,12.48
2023-03-29T17:52:04.549Z,11.96
2023-03-29T17:54:31.132Z,11.55
2023-03-29T17:56:57.721Z,11.76
2023-03-29T17:59:24.605Z,12.16
2023-03-29T18:01:51.292Z,12.32
2023-03-29T18:04:17.961Z,12.16
2023-03-29T18:06:45.630Z,12.30
2023-03-29T18:09:12.894Z,12.24
2023-03-29T18:11:39.498Z,12.00
2023-03-29T18:14:06.340Z,11.92
2023-03-29T18:16:33.261Z,12.08
2023-03-29T18:18:59.926Z,11.77
2023-03-29T18:21:27.416Z,11.98
2023-03-29T18:23:56.641Z,12.38
2023-03-29T18:26:24.141Z,12.07
2023-03-29T18:28:51.246Z,12.42
2023-03-29T18:31:19.822Z,13.27
2023-03-29T18:33:47.519Z,12.76
2023-03-29T18:36:15.133Z,13.08
2023-03-29T18:38:43.553Z,12.86
2023-03-29T18:41:13.476Z,13.52
2023-03-29T18:43:41.436Z,14.26
2023-03-29T18:46:08.571Z,14.46
2023-03-29T18:48:39.045Z,14.70
2023-03-29T18:51:07.457Z,14.51
2023-03-29T18:53:35.813Z,14.15
2023-03-29T18:56:04.464Z,14.12
2023-03-29T18:58:31.301Z,13.97
2023-03-29T19:01:03.651Z,14.10
2023-03-29T19:03:31.923Z,13.50
2023-03-29T19:05:58.606Z,14.06
2023-03-29T19:08:26.310Z,13.47
2023-03-29T19:10:59.754Z,13.21
2023-03-29T19:13:26.380Z,13.24
2023-03-29T19:15:53.038Z,13.25
2023-03-29T19:18:19.696Z,12.96
2023-03-29T19:20:50.820Z,13.30
2023-03-29T19:23:18.204Z,13.68
2023-03-29T19:25:55.296Z,13.91
2023-03-29T19:28:22.702Z,14.57
2023-03-29T19:30:49.681Z,14.39
2023-03-29T19:33:17.071Z,14.23
2023-03-29T19:35:44.316Z,13.60
2023-03-29T19:38:11.643Z,13.82
2023-03-29T19:40:38.536Z,13.61
2023-03-29T19:43:05.270Z,13.32
2023-03-29T19:45:31.975Z,12.54
2023-03-29T19:48:03.027Z,11.90
2023-03-29T19:50:31.545Z,11.60
2023-03-29T19:52:58.574Z,11.11
2023-03-29T19:55:26.458Z,11.70
2023-03-29T19:57:53.037Z,10.90
2023-03-29T20:00:24.362Z,10.52
2023-03-29T20:02:52.313Z,10.88
2023-03-29T20:05:20.244Z,10.79
2023-03-29T20:07:46.908Z,10.65
2023-03-29T20:10:13.653Z,11.73
2023-03-29T20:12:40.292Z,11.55
2023-03-29T20:15:07.455Z,11.48
2023-03-29T20:17:35.365Z,11.61
2023-03-29T20:20:08.221Z,10.91
2023-03-29T20:22:34.830Z,10.71
2023-03-29T20:25:01.472Z,10.87
2023-03-29T20:27:29.402Z,11.00
2023-03-29T20:29:56.095Z,10.32
2023-03-29T20:32:22.793Z,10.62
2023-03-29T20:34:49.434Z,10.71
2023-03-29T20:37:16.074Z,11.00
2023-03-29T20:39:43.050Z,11.43
2023-03-29T20:42:09.706Z,11.82
2023-03-29T20:44:36.600Z,12.11
2023-03-29T20:47:04.979Z,12.23
2023-03-29T20:49:39.163Z,12.41
2023-03-29T20:52:09.343Z,12.10
2023-03-29T20:54:37.207Z,11.31
2023-03-29T20:57:04.986Z,11.76
2023-03-29T20:59:31.662Z,11.34
2023-03-29T21:02:00.091Z,11.02
2023-03-29T21:04:28.260Z,10.75
2023-03-29T21:06:56.172Z,10.50
2023-03-29T21:09:25.413Z,10.37
2023-03-29T21:11:52.810Z,10.34
2023-03-29T21:14:19.581Z,10.25
2023-03-29T21:16:47.411Z,9.97
2023-03-29T21:19:15.433Z,10.00
2023-03-29T21:21:47.007Z,10.08
2023-03-29T21:24:13.780Z,9.59
2023-03-29T21:26:41.135Z,9.71
2023-03-29T21:29:07.846Z,9.84
2023-03-29T21:31:34.555Z,9.24
2023-03-29T21:34:01.157Z,9.52
2023-03-29T21:36:27.730Z,9.18
2023-03-29T21:38:54.744Z,9.27
2023-03-29T21:41:21.931Z,9.46
2023-03-29T21:43:48.711Z,9.51
2023-03-29T21:46:15.587Z,9.37
2023-03-29T21:48:42.417Z,9.51
2023-03-29T21:51:09.007Z,9.09
2023-03-29T21:53:35.663Z,9.34
2023-03-29T21:56:02.460Z,9.69
2023-03-29T21:58:29.061Z,9.52
2023-03-29T22:00:56.689Z,9.40
2023-03-29T22:03:23.358Z,9.53
2023-03-29T22:05:58.434Z,9.30
2023-03-29T22:08:26.471Z,8.92
2023-03-29T22:10:56.822Z,9.44
2023-03-29T22:13:25.393Z,9.21
2023-03-29T22:15:58.436Z,9.18
2023-03-29T22:18:30.053Z,9.06
2023-03-29T22:20:57.176Z,9.38
2023-03-29T22:23:24.910Z,9.25
2023-03-29T22:25:51.692Z,8.91
2023-03-29T22:28:18.345Z,8.58
2023-03-29T22:30:44.933Z,9.23
2023-03-29T22:33:11.548Z,8.49
2023-03-29T22:35:38.123Z,8.51
2023-03-29T22:38:04.679Z,8.31
2023-03-29T22:40:33.181Z,8.10
2023-03-29T22:43:00.187Z,8.06
2023-03-29T22:45:27.299Z,8.16
2023-03-29T22:47:53.896Z,7.76
2023-03-29T22:50:20.597Z,8.01
2023-03-29T22:52:47.177Z,8.03
2023-03-29T22:55:14.118Z,7.88
2023-03-29T22:57:40.762Z,7.56
2023-03-29T23:00:09.167Z,7.58
2023-03-29T23:02:36.844Z,7.70
2023-03-29T23:05:03.610Z,7.78
2023-03-29T23:07:30.302Z,7.69
2023-03-29T23:09:56.905Z,7.72
2023-03-29T23:12:24.202Z,7.22
2023-03-29T23:14:53.108Z,7.49
2023-03-29T23:17:19.839Z,7.14
2023-03-29T23:19:46.649Z,7.52
2023-03-29T23:22:14.157Z,7.25
2023-03-29T23:24:43.415Z,7.34
2023-03-29T23:27:10.146Z,6.95
2023-03-29T23:29:37.845Z,7.17
2023-03-29T23:32:04.472Z,6.74
2023-03-29T23:34:31.125Z,6.75
2023-03-29T23:36:57.724Z,7.09
2023-03-29T23:39:25.084Z,6.94
2023-03-29T23:41:51.808Z,6.81
2023-03-29T23:44:18.439Z,6.91
2023-03-29T23:46:45.150Z,6.88
2023-03-29T23:49:12.002Z,6.83
2023-03-29T23:51:39.022Z,6.87
2023-03-29T23:54:05.647Z,7.04
2023-03-29T23:56:32.526Z,6.40
2023-03-29T23:58:59.340Z,6.52
